sensor_id;sensor_type;location;lat;lon;timestamp;temperature;humidity
31735;DHT22;18313;48.518;9.124;2022-08-19T00:01:32;20.00;99.90
31735;DHT22;18313;48.518;9.124;2022-08-19T00:04:06;19.90;99.90
31735;DHT22;18313;48.518;9.124;2022-08-19T00:06:34;20.00;99.90
31735;DHT22;18313;48.518;9.124;2022-08-19T00:09:03;20.00;99.90
31735;DHT22;18313;48.518;9.124;2022-08-19T00:11:30;20.10;99.90
31735;DHT22;18313;48.518;9.124;2022-08-19T00:13:57;20.00;99.90
31735;DHT22;18313;48.518;9.124;2022-08-19T00:16:26;20.00;99.90
31735;DHT22;18313;48.518;9.124;2022-08-19T00:18:56;20.10;99.90
31735;DHT22;18313;48.518;9.124;2022-08-19T00:21:24;20.00;99.90
31735;DHT22;18313;48.518;9.124;2022-08-19T00:23:51;20.00;99.90
31735;DHT22;18313;48.518;9.124;2022-08-19T00:26:18;20.00;99.90
31735;DHT22;18313;48.518;9.124;2022-08-19T00:28:45;20.00;99.90
31735;DHT22;18313;48.518;9.124;2022-08-19T00:31:13;20.10;99.90
31735;DHT22;18313;48.518;9.124;2022-08-19T00:33:40;20.10;99.90
31735;DHT22;18313;48.518;9.124;2022-08-19T00:36:08;20.10;99.90
31735;DHT22;18313;48.518;9.124;2022-08-19T00:38:37;20.20;99.90
31735;DHT22;18313;48.518;9.124;2022-08-19T00:41:05;20.10;99.90
31735;DHT22;18313;48.518;9.124;2022-08-19T00:43:33;20.10;99.90
31735;DHT22;18313;48.518;9.124;2022-08-19T00:46:00;20.20;99.90
31735;DHT22;18313;48.518;9.124;2022-08-19T00:48:29;20.10;99.90
31735;DHT22;18313;48.518;9.124;2022-08-19T00:50:56;20.00;99.90
31735;DHT22;18313;48.518;9.124;2022-08-19T00:53:27;20.00;99.90
31735;DHT22;18313;48.518;9.124;2022-08-19T00:55:58;19.90;99.90
31735;DHT22;18313;48.518;9.124;2022-08-19T00:58:30;19.90;99.90
31735;DHT22;18313;48.518;9.124;2022-08-19T01:00:57;19.90;99.90
31735;DHT22;18313;48.518;9.124;2022-08-19T01:03:24;19.90;99.90
31735;DHT22;18313;48.518;9.124;2022-08-19T01:05:51;19.90;99.90
31735;DHT22;18313;48.518;9.124;2022-08-19T01:08:19;19.90;99.90
31735;DHT22;18313;48.518;9.124;2022-08-19T01:10:54;19.90;99.90
31735;DHT22;18313;48.518;9.124;2022-08-19T01:13:24;19.90;99.90
31735;DHT22;18313;48.518;9.124;2022-08-19T01:16:01;19.90;99.90
31735;DHT22;18313;48.518;9.124;2022-08-19T01:18:30;20.00;99.90
31735;DHT22;18313;48.518;9.124;2022-08-19T01:21:01;19.90;99.90
31735;DHT22;18313;48.518;9.124;2022-08-19T01:23:29;19.90;99.90
31735;DHT22;18313;48.518;9.124;2022-08-19T01:26:16;19.80;99.90
31735;DHT22;18313;48.518;9.124;2022-08-19T01:28:45;19.80;99.90
31735;DHT22;18313;48.518;9.124;2022-08-19T01:31:16;19.80;99.90
31735;DHT22;18313;48.518;9.124;2022-08-19T01:33:56;19.70;99.90
31735;DHT22;18313;48.518;9.124;2022-08-19T01:36:28;19.70;99.90
31735;DHT22;18313;48.518;9.124;2022-08-19T01:38:56;19.60;99.90
31735;DHT22;18313;48.518;9.124;2022-08-19T01:41:23;19.70;99.90
31735;DHT22;18313;48.518;9.124;2022-08-19T01:43:53;19.70;99.90
31735;DHT22;18313;48.518;9.124;2022-08-19T01:46:40;19.70;99.90
31735;DHT22;18313;48.518;9.124;2022-08-19T01:49:08;19.60;99.90
31735;DHT22;18313;48.518;9.124;2022-08-19T01:51:37;19.60;99.90
31735;DHT22;18313;48.518;9.124;2022-08-19T01:54:06;19.60;99.90
31735;DHT22;18313;48.518;9.124;2022-08-19T01:56:33;19.50;99.90
31735;DHT22;18313;48.518;9.124;2022-08-19T01:59:03;19.40;99.90
31735;DHT22;18313;48.518;9.124;2022-08-19T02:01:31;19.40;99.90
31735;DHT22;18313;48.518;9.124;2022-08-19T02:03:59;19.40;99.90
31735;DHT22;18313;48.518;9.124;2022-08-19T02:06:28;19.40;99.90
31735;DHT22;18313;48.518;9.124;2022-08-19T02:08:55;19.40;99.90
31735;DHT22;18313;48.518;9.124;2022-08-19T02:11:32;19.50;99.90
31735;DHT22;18313;48.518;9.124;2022-08-19T02:14:02;19.40;99.90
31735;DHT22;18313;48.518;9.124;2022-08-19T02:16:29;19.30;99.90
31735;DHT22;18313;48.518;9.124;2022-08-19T02:18:57;19.30;99.90
31735;DHT22;18313;48.518;9.124;2022-08-19T02:21:28;19.20;99.90
31735;DHT22;18313;48.518;9.124;2022-08-19T02:23:55;19.10;99.90
31735;DHT22;18313;48.518;9.124;2022-08-19T02:26:22;19.20;99.90
31735;DHT22;18313;48.518;9.124;2022-08-19T02:28:50;19.20;99.90
31735;DHT22;18313;48.518;9.124;2022-08-19T02:31:19;19.10;99.90
31735;DHT22;18313;48.518;9.124;2022-08-19T02:33:47;19.20;99.90
31735;DHT22;18313;48.518;9.124;2022-08-19T02:36:15;19.20;99.90
31735;DHT22;18313;48.518;9.124;2022-08-19T02:38:46;19.20;99.90
31735;DHT22;18313;48.518;9.124;2022-08-19T02:41:24;19.20;99.90
31735;DHT22;18313;48.518;9.124;2022-08-19T02:43:57;19.20;99.90
31735;DHT22;18313;48.518;9.124;2022-08-19T02:46:46;19.20;99.90
31735;DHT22;18313;48.518;9.124;2022-08-19T02:49:14;19.20;99.90
31735;DHT22;18313;48.518;9.124;2022-08-19T02:51:44;19.20;99.90
31735;DHT22;18313;48.518;9.124;2022-08-19T02:54:12;19.20;99.90
31735;DHT22;18313;48.518;9.124;2022-08-19T02:56:40;19.10;99.90
31735;DHT22;18313;48.518;9.124;2022-08-19T02:59:07;19.10;99.90
31735;DHT22;18313;48.518;9.124;2022-08-19T03:01:39;19.00;99.90
31735;DHT22;18313;48.518;9.124;2022-08-19T03:04:09;19.00;99.90
31735;DHT22;18313;48.518;9.124;2022-08-19T03:06:38;19.00;99.90
31735;DHT22;18313;48.518;9.124;2022-08-19T03:09:05;19.00;99.90
31735;DHT22;18313;48.518;9.124;2022-08-19T03:11:32;19.00;99.90
31735;DHT22;18313;48.518;9.124;2022-08-19T03:14:01;19.00;99.90
31735;DHT22;18313;48.518;9.124;2022-08-19T03:16:31;19.00;99.90
31735;DHT22;18313;48.518;9.124;2022-08-19T03:19:00;19.00;99.90
31735;DHT22;18313;48.518;9.124;2022-08-19T03:21:30;19.00;99.90
31735;DHT22;18313;48.518;9.124;2022-08-19T03:24:00;19.00;99.90
31735;DHT22;18313;48.518;9.124;2022-08-19T03:26:27;19.00;99.90
31735;DHT22;18313;48.518;9.124;2022-08-19T03:28:54;19.00;99.90
31735;DHT22;18313;48.518;9.124;2022-08-19T03:31:26;18.90;99.90
31735;DHT22;18313;48.518;9.124;2022-08-19T03:34:17;18.90;99.90
31735;DHT22;18313;48.518;9.124;2022-08-19T03:36:44;19.00;99.90
31735;DHT22;18313;48.518;9.124;2022-08-19T03:39:12;18.90;99.90
31735;DHT22;18313;48.518;9.124;2022-08-19T03:41:41;18.90;99.90
31735;DHT22;18313;48.518;9.124;2022-08-19T03:44:11;18.90;99.90
31735;DHT22;18313;48.518;9.124;2022-08-19T03:46:45;18.90;99.90
31735;DHT22;18313;48.518;9.124;2022-08-19T03:49:12;18.90;99.90
31735;DHT22;18313;48.518;9.124;2022-08-19T03:51:41;18.90;99.90
31735;DHT22;18313;48.518;9.124;2022-08-19T03:54:10;19.00;99.90
31735;DHT22;18313;48.518;9.124;2022-08-19T03:56:39;18.90;99.90
31735;DHT22;18313;48.518;9.124;2022-08-19T03:59:12;18.80;99.90
31735;DHT22;18313;48.518;9.124;2022-08-19T04:01:40;18.80;99.90
31735;DHT22;18313;48.518;9.124;2022-08-19T04:04:08;18.80;99.90
31735;DHT22;18313;48.518;9.124;2022-08-19T04:06:36;18.80;99.90
31735;DHT22;18313;48.518;9.124;2022-08-19T04:09:09;18.80;99.90
31735;DHT22;18313;48.518;9.124;2022-08-19T04:11:39;18.80;99.90
31735;DHT22;18313;48.518;9.124;2022-08-19T04:14:19;18.90;99.90
31735;DHT22;18313;48.518;9.124;2022-08-19T04:16:47;18.80;99.90
31735;DHT22;18313;48.518;9.124;2022-08-19T04:19:15;18.80;99.90
31735;DHT22;18313;48.518;9.124;2022-08-19T04:21:45;18.90;99.90
31735;DHT22;18313;48.518;9.124;2022-08-19T04:24:12;18.90;99.90
31735;DHT22;18313;48.518;9.124;2022-08-19T04:26:39;18.80;99.90
31735;DHT22;18313;48.518;9.124;2022-08-19T04:29:18;18.80;99.90
31735;DHT22;18313;48.518;9.124;2022-08-19T04:31:48;18.90;99.90
31735;DHT22;18313;48.518;9.124;2022-08-19T04:34:18;18.90;99.90
31735;DHT22;18313;48.518;9.124;2022-08-19T04:36:49;18.90;99.90
31735;DHT22;18313;48.518;9.124;2022-08-19T04:39:20;18.90;99.90
31735;DHT22;18313;48.518;9.124;2022-08-19T04:41:48;18.80;99.90
31735;DHT22;18313;48.518;9.124;2022-08-19T04:44:35;18.90;99.90
31735;DHT22;18313;48.518;9.124;2022-08-19T04:47:10;18.80;99.90
31735;DHT22;18313;48.518;9.124;2022-08-19T04:49:38;18.80;99.90
31735;DHT22;18313;48.518;9.124;2022-08-19T04:52:05;18.80;99.90
31735;DHT22;18313;48.518;9.124;2022-08-19T04:54:32;18.80;99.90
31735;DHT22;18313;48.518;9.124;2022-08-19T04:57:06;18.80;99.90
31735;DHT22;18313;48.518;9.124;2022-08-19T04:59:36;18.90;99.90
31735;DHT22;18313;48.518;9.124;2022-08-19T05:02:04;18.90;99.90
31735;DHT22;18313;48.518;9.124;2022-08-19T05:04:31;18.70;99.90
31735;DHT22;18313;48.518;9.124;2022-08-19T05:06:59;18.70;99.90
31735;DHT22;18313;48.518;9.124;2022-08-19T05:09:29;18.70;99.90
31735;DHT22;18313;48.518;9.124;2022-08-19T05:12:17;18.60;99.90
31735;DHT22;18313;48.518;9.124;2022-08-19T05:14:44;18.60;99.90
31735;DHT22;18313;48.518;9.124;2022-08-19T05:17:13;18.60;99.90
31735;DHT22;18313;48.518;9.124;2022-08-19T05:20:00;18.60;99.90
31735;DHT22;18313;48.518;9.124;2022-08-19T05:22:46;18.50;99.90
31735;DHT22;18313;48.518;9.124;2022-08-19T05:25:18;18.60;99.90
31735;DHT22;18313;48.518;9.124;2022-08-19T05:27:46;18.70;99.90
31735;DHT22;18313;48.518;9.124;2022-08-19T05:30:14;18.70;99.90
31735;DHT22;18313;48.518;9.124;2022-08-19T05:32:41;18.70;99.90
31735;DHT22;18313;48.518;9.124;2022-08-19T05:35:08;18.70;99.90
31735;DHT22;18313;48.518;9.124;2022-08-19T05:37:36;18.70;99.90
31735;DHT22;18313;48.518;9.124;2022-08-19T05:40:04;18.80;99.90
31735;DHT22;18313;48.518;9.124;2022-08-19T05:42:31;18.90;99.90
31735;DHT22;18313;48.518;9.124;2022-08-19T05:44:58;18.90;99.90
31735;DHT22;18313;48.518;9.124;2022-08-19T05:47:25;19.00;99.90
31735;DHT22;18313;48.518;9.124;2022-08-19T05:49:52;18.90;99.90
31735;DHT22;18313;48.518;9.124;2022-08-19T05:52:19;19.00;99.90
31735;DHT22;18313;48.518;9.124;2022-08-19T05:54:53;19.00;99.90
31735;DHT22;18313;48.518;9.124;2022-08-19T05:57:23;19.10;99.90
31735;DHT22;18313;48.518;9.124;2022-08-19T05:59:51;19.10;99.90
31735;DHT22;18313;48.518;9.124;2022-08-19T06:02:28;19.00;99.90
31735;DHT22;18313;48.518;9.124;2022-08-19T06:04:57;19.10;99.90
31735;DHT22;18313;48.518;9.124;2022-08-19T06:07:24;19.20;99.90
31735;DHT22;18313;48.518;9.124;2022-08-19T06:09:51;19.20;99.90
31735;DHT22;18313;48.518;9.124;2022-08-19T06:12:30;19.20;99.90
31735;DHT22;18313;48.518;9.124;2022-08-19T06:15:00;19.20;99.90
31735;DHT22;18313;48.518;9.124;2022-08-19T06:17:30;19.20;99.90
31735;DHT22;18313;48.518;9.124;2022-08-19T06:19:58;19.20;99.90
31735;DHT22;18313;48.518;9.124;2022-08-19T06:22:27;19.20;99.90
31735;DHT22;18313;48.518;9.124;2022-08-19T06:24:55;19.30;99.90
31735;DHT22;18313;48.518;9.124;2022-08-19T06:27:22;19.40;99.90
31735;DHT22;18313;48.518;9.124;2022-08-19T06:29:49;19.40;99.90
31735;DHT22;18313;48.518;9.124;2022-08-19T06:32:17;19.50;99.90
31735;DHT22;18313;48.518;9.124;2022-08-19T06:34:45;19.60;99.90
31735;DHT22;18313;48.518;9.124;2022-08-19T06:37:13;19.60;99.90
31735;DHT22;18313;48.518;9.124;2022-08-19T06:39:42;19.60;99.90
31735;DHT22;18313;48.518;9.124;2022-08-19T06:42:10;19.60;99.90
31735;DHT22;18313;48.518;9.124;2022-08-19T06:44:45;19.60;99.90
31735;DHT22;18313;48.518;9.124;2022-08-19T06:47:17;19.60;99.90
31735;DHT22;18313;48.518;9.124;2022-08-19T06:49:53;19.70;99.90
31735;DHT22;18313;48.518;9.124;2022-08-19T06:52:26;19.70;99.90
31735;DHT22;18313;48.518;9.124;2022-08-19T06:54:54;19.70;99.90
31735;DHT22;18313;48.518;9.124;2022-08-19T06:57:26;19.70;99.90
31735;DHT22;18313;48.518;9.124;2022-08-19T06:59:52;19.70;99.90
31735;DHT22;18313;48.518;9.124;2022-08-19T07:02:19;19.70;99.90
31735;DHT22;18313;48.518;9.124;2022-08-19T07:04:47;19.80;99.90
31735;DHT22;18313;48.518;9.124;2022-08-19T07:07:20;19.80;99.90
31735;DHT22;18313;48.518;9.124;2022-08-19T07:09:48;19.80;99.90
31735;DHT22;18313;48.518;9.124;2022-08-19T07:12:30;19.80;99.90
31735;DHT22;18313;48.518;9.124;2022-08-19T07:15:03;19.80;99.90
31735;DHT22;18313;48.518;9.124;2022-08-19T07:17:31;19.80;99.90
31735;DHT22;18313;48.518;9.124;2022-08-19T07:20:01;19.80;99.90
31735;DHT22;18313;48.518;9.124;2022-08-19T07:22:35;19.80;99.90
31735;DHT22;18313;48.518;9.124;2022-08-19T07:25:03;19.80;99.90
31735;DHT22;18313;48.518;9.124;2022-08-19T07:27:30;19.80;99.90
31735;DHT22;18313;48.518;9.124;2022-08-19T07:30:00;19.80;99.90
31735;DHT22;18313;48.518;9.124;2022-08-19T07:32:27;19.80;99.90
31735;DHT22;18313;48.518;9.124;2022-08-19T07:34:55;19.70;99.90
31735;DHT22;18313;48.518;9.124;2022-08-19T07:37:23;19.70;99.90
31735;DHT22;18313;48.518;9.124;2022-08-19T07:39:58;19.70;99.90
31735;DHT22;18313;48.518;9.124;2022-08-19T07:42:25;19.70;99.90
31735;DHT22;18313;48.518;9.124;2022-08-19T07:44:53;19.70;99.90
31735;DHT22;18313;48.518;9.124;2022-08-19T07:47:20;19.60;99.90
31735;DHT22;18313;48.518;9.124;2022-08-19T07:50:09;19.60;99.90
31735;DHT22;18313;48.518;9.124;2022-08-19T07:52:38;19.70;99.90
31735;DHT22;18313;48.518;9.124;2022-08-19T07:55:07;19.70;99.90
31735;DHT22;18313;48.518;9.124;2022-08-19T07:57:54;19.70;99.90
31735;DHT22;18313;48.518;9.124;2022-08-19T08:00:22;19.70;99.90
31735;DHT22;18313;48.518;9.124;2022-08-19T08:02:50;19.70;99.90
31735;DHT22;18313;48.518;9.124;2022-08-19T08:05:21;19.70;99.90
31735;DHT22;18313;48.518;9.124;2022-08-19T08:08:10;19.70;99.90
31735;DHT22;18313;48.518;9.124;2022-08-19T08:10:58;19.70;99.90
31735;DHT22;18313;48.518;9.124;2022-08-19T08:13:26;19.70;99.90
31735;DHT22;18313;48.518;9.124;2022-08-19T08:15:54;19.70;99.90
31735;DHT22;18313;48.518;9.124;2022-08-19T08:18:25;19.60;99.90
31735;DHT22;18313;48.518;9.124;2022-08-19T08:20:57;19.70;99.90
31735;DHT22;18313;48.518;9.124;2022-08-19T08:23:24;19.70;99.90
31735;DHT22;18313;48.518;9.124;2022-08-19T08:25:57;19.70;99.90
31735;DHT22;18313;48.518;9.124;2022-08-19T08:28:26;19.80;99.90
31735;DHT22;18313;48.518;9.124;2022-08-19T08:30:56;19.80;99.90
31735;DHT22;18313;48.518;9.124;2022-08-19T08:33:25;19.90;99.90
31735;DHT22;18313;48.518;9.124;2022-08-19T08:36:07;20.00;99.90
31735;DHT22;18313;48.518;9.124;2022-08-19T08:38:36;19.90;99.90
31735;DHT22;18313;48.518;9.124;2022-08-19T08:43:58;20.00;99.90
31735;DHT22;18313;48.518;9.124;2022-08-19T08:46:42;20.10;99.90
31735;DHT22;18313;48.518;9.124;2022-08-19T08:49:33;20.10;99.90
31735;DHT22;18313;48.518;9.124;2022-08-19T08:52:27;20.10;99.90
31735;DHT22;18313;48.518;9.124;2022-08-19T08:55:00;20.10;99.90
31735;DHT22;18313;48.518;9.124;2022-08-19T08:57:53;20.00;99.90
31735;DHT22;18313;48.518;9.124;2022-08-19T09:00:28;19.90;99.90
31735;DHT22;18313;48.518;9.124;2022-08-19T09:02:57;19.90;99.90
31735;DHT22;18313;48.518;9.124;2022-08-19T09:05:38;19.80;99.90
31735;DHT22;18313;48.518;9.124;2022-08-19T09:11:00;19.80;99.90
31735;DHT22;18313;48.518;9.124;2022-08-19T09:13:42;19.70;99.90
31735;DHT22;18313;48.518;9.124;2022-08-19T09:16:16;19.70;99.90
31735;DHT22;18313;48.518;9.124;2022-08-19T09:18:58;19.80;99.90
31735;DHT22;18313;48.518;9.124;2022-08-19T09:21:28;19.70;99.90
31735;DHT22;18313;48.518;9.124;2022-08-19T09:24:00;19.80;99.90
31735;DHT22;18313;48.518;9.124;2022-08-19T09:26:30;19.90;99.90
31735;DHT22;18313;48.518;9.124;2022-08-19T09:29:18;20.00;99.90
31735;DHT22;18313;48.518;9.124;2022-08-19T09:31:48;20.00;99.90
31735;DHT22;18313;48.518;9.124;2022-08-19T09:34:16;20.00;99.90
31735;DHT22;18313;48.518;9.124;2022-08-19T09:36:48;20.00;99.90
31735;DHT22;18313;48.518;9.124;2022-08-19T09:39:20;19.90;99.90
31735;DHT22;18313;48.518;9.124;2022-08-19T09:41:47;20.00;99.90
31735;DHT22;18313;48.518;9.124;2022-08-19T09:44:15;19.90;99.90
31735;DHT22;18313;48.518;9.124;2022-08-19T09:46:43;19.90;99.90
31735;DHT22;18313;48.518;9.124;2022-08-19T09:49:10;19.90;99.90
31735;DHT22;18313;48.518;9.124;2022-08-19T09:51:39;19.90;99.90
31735;DHT22;18313;48.518;9.124;2022-08-19T09:54:06;19.90;99.90
31735;DHT22;18313;48.518;9.124;2022-08-19T09:56:37;19.80;99.90
31735;DHT22;18313;48.518;9.124;2022-08-19T09:59:04;19.80;99.90
31735;DHT22;18313;48.518;9.124;2022-08-19T10:01:32;19.70;99.90
31735;DHT22;18313;48.518;9.124;2022-08-19T10:04:00;19.70;99.90
31735;DHT22;18313;48.518;9.124;2022-08-19T10:06:40;19.80;99.90
31735;DHT22;18313;48.518;9.124;2022-08-19T10:09:14;19.80;99.90
31735;DHT22;18313;48.518;9.124;2022-08-19T10:11:43;19.70;99.90
31735;DHT22;18313;48.518;9.124;2022-08-19T10:14:19;19.70;99.90
31735;DHT22;18313;48.518;9.124;2022-08-19T10:16:49;19.70;99.90
31735;DHT22;18313;48.518;9.124;2022-08-19T10:19:17;19.70;99.90
31735;DHT22;18313;48.518;9.124;2022-08-19T10:21:52;19.70;99.90
31735;DHT22;18313;48.518;9.124;2022-08-19T10:24:21;19.70;99.90
31735;DHT22;18313;48.518;9.124;2022-08-19T10:26:51;19.60;99.90
31735;DHT22;18313;48.518;9.124;2022-08-19T10:29:23;19.60;99.90
31735;DHT22;18313;48.518;9.124;2022-08-19T10:32:04;19.60;99.90
31735;DHT22;18313;48.518;9.124;2022-08-19T10:34:39;19.70;99.90
31735;DHT22;18313;48.518;9.124;2022-08-19T10:37:15;19.70;99.90
31735;DHT22;18313;48.518;9.124;2022-08-19T10:39:49;19.70;99.90
31735;DHT22;18313;48.518;9.124;2022-08-19T10:42:17;19.60;99.90
31735;DHT22;18313;48.518;9.124;2022-08-19T10:44:45;19.70;99.90
31735;DHT22;18313;48.518;9.124;2022-08-19T10:47:13;19.80;99.90
31735;DHT22;18313;48.518;9.124;2022-08-19T10:49:50;19.80;99.90
31735;DHT22;18313;48.518;9.124;2022-08-19T10:52:41;19.80;99.90
31735;DHT22;18313;48.518;9.124;2022-08-19T10:55:17;19.80;99.90
31735;DHT22;18313;48.518;9.124;2022-08-19T10:58:04;19.80;99.90
31735;DHT22;18313;48.518;9.124;2022-08-19T11:00:32;20.00;99.90
31735;DHT22;18313;48.518;9.124;2022-08-19T11:02:59;20.00;99.90
31735;DHT22;18313;48.518;9.124;2022-08-19T11:05:26;20.10;99.90
31735;DHT22;18313;48.518;9.124;2022-08-19T11:07:53;20.20;99.90
31735;DHT22;18313;48.518;9.124;2022-08-19T11:10:20;20.30;99.90
31735;DHT22;18313;48.518;9.124;2022-08-19T11:12:48;20.20;99.90
31735;DHT22;18313;48.518;9.124;2022-08-19T11:15:21;20.10;99.90
31735;DHT22;18313;48.518;9.124;2022-08-19T11:17:47;20.20;99.90
31735;DHT22;18313;48.518;9.124;2022-08-19T11:20:15;20.20;99.90
31735;DHT22;18313;48.518;9.124;2022-08-19T11:22:42;20.20;99.90
31735;DHT22;18313;48.518;9.124;2022-08-19T11:25:10;20.30;99.90
31735;DHT22;18313;48.518;9.124;2022-08-19T11:27:39;20.40;99.90
31735;DHT22;18313;48.518;9.124;2022-08-19T11:30:09;20.40;99.90
31735;DHT22;18313;48.518;9.124;2022-08-19T11:32:42;20.50;99.90
31735;DHT22;18313;48.518;9.124;2022-08-19T11:35:15;20.60;99.90
31735;DHT22;18313;48.518;9.124;2022-08-19T11:37:42;20.60;99.90
31735;DHT22;18313;48.518;9.124;2022-08-19T11:40:10;20.60;99.90
31735;DHT22;18313;48.518;9.124;2022-08-19T11:42:37;20.50;99.90
31735;DHT22;18313;48.518;9.124;2022-08-19T11:45:27;20.60;99.90
31735;DHT22;18313;48.518;9.124;2022-08-19T11:47:54;20.60;99.90
31735;DHT22;18313;48.518;9.124;2022-08-19T11:50:22;20.60;99.90
31735;DHT22;18313;48.518;9.124;2022-08-19T11:52:53;20.50;99.90
31735;DHT22;18313;48.518;9.124;2022-08-19T11:55:20;20.50;99.90
31735;DHT22;18313;48.518;9.124;2022-08-19T11:57:47;20.40;99.90
31735;DHT22;18313;48.518;9.124;2022-08-19T12:00:15;20.40;99.90
31735;DHT22;18313;48.518;9.124;2022-08-19T12:02:41;20.40;99.90
31735;DHT22;18313;48.518;9.124;2022-08-19T12:05:09;20.40;99.90
31735;DHT22;18313;48.518;9.124;2022-08-19T12:07:39;20.20;99.90
31735;DHT22;18313;48.518;9.124;2022-08-19T12:10:07;20.10;99.90
31735;DHT22;18313;48.518;9.124;2022-08-19T12:12:36;20.00;99.90
31735;DHT22;18313;48.518;9.124;2022-08-19T12:15:07;19.90;99.90
31735;DHT22;18313;48.518;9.124;2022-08-19T12:17:34;19.90;99.90
31735;DHT22;18313;48.518;9.124;2022-08-19T12:20:01;19.90;99.90
31735;DHT22;18313;48.518;9.124;2022-08-19T12:22:28;19.80;99.90
31735;DHT22;18313;48.518;9.124;2022-08-19T12:24:55;19.80;99.90
31735;DHT22;18313;48.518;9.124;2022-08-19T12:27:22;19.80;99.90
31735;DHT22;18313;48.518;9.124;2022-08-19T12:30:09;19.80;99.90
31735;DHT22;18313;48.518;9.124;2022-08-19T12:32:37;19.70;99.90
31735;DHT22;18313;48.518;9.124;2022-08-19T12:35:05;19.60;99.90
31735;DHT22;18313;48.518;9.124;2022-08-19T12:37:32;19.50;99.90
31735;DHT22;18313;48.518;9.124;2022-08-19T12:39:59;19.60;99.90
31735;DHT22;18313;48.518;9.124;2022-08-19T12:42:26;19.60;99.90
31735;DHT22;18313;48.518;9.124;2022-08-19T12:44:53;19.60;99.90
31735;DHT22;18313;48.518;9.124;2022-08-19T12:47:20;19.50;99.90
31735;DHT22;18313;48.518;9.124;2022-08-19T12:49:48;19.60;99.90
31735;DHT22;18313;48.518;9.124;2022-08-19T12:52:21;19.60;99.90
31735;DHT22;18313;48.518;9.124;2022-08-19T12:54:50;19.70;99.90
31735;DHT22;18313;48.518;9.124;2022-08-19T12:57:23;19.80;99.90
31735;DHT22;18313;48.518;9.124;2022-08-19T13:00:19;19.80;99.90
31735;DHT22;18313;48.518;9.124;2022-08-19T13:02:50;19.90;99.90
31735;DHT22;18313;48.518;9.124;2022-08-19T13:05:21;19.90;99.90
31735;DHT22;18313;48.518;9.124;2022-08-19T13:07:50;20.00;99.90
31735;DHT22;18313;48.518;9.124;2022-08-19T13:10:19;19.90;99.90
31735;DHT22;18313;48.518;9.124;2022-08-19T13:12:48;19.90;99.90
31735;DHT22;18313;48.518;9.124;2022-08-19T13:15:18;19.90;99.90
31735;DHT22;18313;48.518;9.124;2022-08-19T13:17:53;19.90;99.90
31735;DHT22;18313;48.518;9.124;2022-08-19T13:20:21;19.90;99.90
31735;DHT22;18313;48.518;9.124;2022-08-19T13:22:48;19.80;99.90
31735;DHT22;18313;48.518;9.124;2022-08-19T13:25:16;19.80;99.90
31735;DHT22;18313;48.518;9.124;2022-08-19T13:27:44;19.80;99.90
31735;DHT22;18313;48.518;9.124;2022-08-19T13:30:13;19.80;99.90
31735;DHT22;18313;48.518;9.124;2022-08-19T13:32:59;19.80;99.90
31735;DHT22;18313;48.518;9.124;2022-08-19T13:35:40;19.80;99.90
31735;DHT22;18313;48.518;9.124;2022-08-19T13:38:07;19.80;99.90
31735;DHT22;18313;48.518;9.124;2022-08-19T13:40:38;19.70;99.90
31735;DHT22;18313;48.518;9.124;2022-08-19T13:43:07;19.60;99.90
31735;DHT22;18313;48.518;9.124;2022-08-19T13:45:51;19.50;99.90
31735;DHT22;18313;48.518;9.124;2022-08-19T13:48:20;19.60;99.90
31735;DHT22;18313;48.518;9.124;2022-08-19T13:50:47;19.60;99.90
31735;DHT22;18313;48.518;9.124;2022-08-19T13:53:15;19.50;99.90
31735;DHT22;18313;48.518;9.124;2022-08-19T13:55:43;19.70;99.90
31735;DHT22;18313;48.518;9.124;2022-08-19T13:58:11;19.80;99.90
31735;DHT22;18313;48.518;9.124;2022-08-19T14:00:44;20.00;99.90
31735;DHT22;18313;48.518;9.124;2022-08-19T14:03:11;19.90;99.90
31735;DHT22;18313;48.518;9.124;2022-08-19T14:05:38;20.00;99.90
31735;DHT22;18313;48.518;9.124;2022-08-19T14:08:05;20.00;99.90
31735;DHT22;18313;48.518;9.124;2022-08-19T14:10:32;20.00;99.90
31735;DHT22;18313;48.518;9.124;2022-08-19T14:13:01;20.00;99.90
31735;DHT22;18313;48.518;9.124;2022-08-19T14:15:29;20.00;99.90
31735;DHT22;18313;48.518;9.124;2022-08-19T14:17:57;19.90;99.90
31735;DHT22;18313;48.518;9.124;2022-08-19T14:20:24;19.90;99.90
31735;DHT22;18313;48.518;9.124;2022-08-19T14:22:52;19.90;99.90
31735;DHT22;18313;48.518;9.124;2022-08-19T14:25:23;19.90;99.90
31735;DHT22;18313;48.518;9.124;2022-08-19T14:27:50;20.00;99.90
31735;DHT22;18313;48.518;9.124;2022-08-19T14:30:22;20.00;99.90
31735;DHT22;18313;48.518;9.124;2022-08-19T14:32:49;20.20;99.90
31735;DHT22;18313;48.518;9.124;2022-08-19T14:35:16;20.20;99.90
31735;DHT22;18313;48.518;9.124;2022-08-19T14:37:45;20.10;99.90
31735;DHT22;18313;48.518;9.124;2022-08-19T14:40:15;20.10;99.90
31735;DHT22;18313;48.518;9.124;2022-08-19T14:42:43;20.10;99.90
31735;DHT22;18313;48.518;9.124;2022-08-19T14:45:11;20.20;99.90
31735;DHT22;18313;48.518;9.124;2022-08-19T14:47:38;20.10;99.90
31735;DHT22;18313;48.518;9.124;2022-08-19T14:50:07;20.20;99.90
31735;DHT22;18313;48.518;9.124;2022-08-19T14:52:37;20.10;99.90
31735;DHT22;18313;48.518;9.124;2022-08-19T14:55:04;20.10;99.90
31735;DHT22;18313;48.518;9.124;2022-08-19T14:57:33;20.00;99.90
31735;DHT22;18313;48.518;9.124;2022-08-19T15:00:00;20.00;99.90
31735;DHT22;18313;48.518;9.124;2022-08-19T15:02:27;20.00;99.90
31735;DHT22;18313;48.518;9.124;2022-08-19T15:05:01;20.10;99.90
31735;DHT22;18313;48.518;9.124;2022-08-19T15:07:29;20.10;99.90
31735;DHT22;18313;48.518;9.124;2022-08-19T15:09:56;20.20;99.90
31735;DHT22;18313;48.518;9.124;2022-08-19T15:12:24;20.30;99.90
31735;DHT22;18313;48.518;9.124;2022-08-19T15:14:51;20.40;99.90
31735;DHT22;18313;48.518;9.124;2022-08-19T15:17:22;20.50;99.90
31735;DHT22;18313;48.518;9.124;2022-08-19T15:20:11;20.50;99.90
31735;DHT22;18313;48.518;9.124;2022-08-19T15:22:39;20.50;99.90
31735;DHT22;18313;48.518;9.124;2022-08-19T15:25:08;20.60;99.90
31735;DHT22;18313;48.518;9.124;2022-08-19T15:27:38;20.70;99.90
31735;DHT22;18313;48.518;9.124;2022-08-19T15:30:07;20.60;99.90
31735;DHT22;18313;48.518;9.124;2022-08-19T15:32:35;20.70;99.90
31735;DHT22;18313;48.518;9.124;2022-08-19T15:35:04;20.80;99.90
31735;DHT22;18313;48.518;9.124;2022-08-19T15:37:31;20.90;99.90
31735;DHT22;18313;48.518;9.124;2022-08-19T15:40:04;20.90;99.90
31735;DHT22;18313;48.518;9.124;2022-08-19T15:42:32;20.80;99.90
31735;DHT22;18313;48.518;9.124;2022-08-19T15:44:59;20.90;99.90
31735;DHT22;18313;48.518;9.124;2022-08-19T15:47:28;20.90;99.90
31735;DHT22;18313;48.518;9.124;2022-08-19T15:50:27;20.80;99.90
31735;DHT22;18313;48.518;9.124;2022-08-19T15:53:00;20.80;99.90
31735;DHT22;18313;48.518;9.124;2022-08-19T15:55:30;20.70;99.90
31735;DHT22;18313;48.518;9.124;2022-08-19T16:00:57;20.80;99.90